La Posta (441, 1215, 629) Station Data

Red Flag Warning: No
Fire Weather Zone: 258
SDGE Region: Mountain Empire
Lat/Lon: 32.714/-116.404

Observations

Time Wind Speed/Gust Temp(F) RH Fuel Moist Fuel Temp(F) Dewpt(F) Tmax(F) Tmin(F) Accum Precip 10-min Precip SL Press(mb)
3/29 8:00am 39 12 G 17 57° 19% - - 15° 58.1° 50.6° - - -
3/29 7:50am 44 8 G 14 56° 20% - - 15° 57.9° 50.6° - - -
3/29 7:40am 48 14 G 18 56° 19% - - 14° 57.9° 50.6° - - -
3/29 7:30am 56 15 G 20 55° 20% - - 14° 57.9° 50.6° - - -
3/29 7:20am 58 14 G 16 54° 20% - - 14° 57.9° 50.6° - - -
3/29 7:10am 54 12 G 15 53° 20% - - 14° 57.9° 50.6° - - -
3/29 7:00am 47 10 G 13 53° 20% - - 13° 57.9° 50.6° - - -
3/29 6:50am 44 8 G 11 53° 20% - - 13° 57.9° 50.6° - - -
3/29 6:40am 47 7 G 11 53° 20% - - 13° 57.9° 50.6° - - -
3/29 6:30am 59 8 G 12 53° 20% - - 13° 57.9° 50.6° - - -
3/29 6:20am 57 9 G 13 53° 19% - - 13° 57.9° 50.6° - - -
3/29 6:10am 53 10 G 15 52° 20% - - 13° 57.9° 50.6° - - -
3/29 6:00am 24 6 G 9 52° 21% - - 13° 57.9° 50.6° - - -
3/29 5:50am 35 6 G 9 51° 21% - - 13° 57.9° 50.6° - - -
3/29 5:40am 50 8 G 11 51° 21% - - 13° 57.9° 50.6° - - -
3/29 5:30am 44 9 G 12 51° 21% - - 13° 57.9° 50.6° - - -
3/29 5:20am 49 8 G 11 52° 20% - - 13° 57.9° 51° - - -
3/29 5:10am 48 11 G 14 53° 20% - - 13° 57.9° 51° - - -
3/29 5:00am 50 10 G 15 53° 20% - - 13° 57.9° 51° - - -
3/29 4:50am 43 10 G 17 55° 18% - - 12° 57.9° 51° - - -
3/29 4:40am 43 12 G 18 55° 18% - - 12° 57.9° 51° - - -
3/29 4:30am 45 13 G 19 56° 17% - - 11° 57.9° 51° - - -
3/29 4:20am 35 14 G 21 57° 16% - - 10° 57.9° 51° - - -
3/29 4:10am 33 17 G 25 57° 15% - - 10° 57.9° 51° - - -
3/29 4:00am 45 17 G 28 57° 15% - - 10° 57.9° 51° - - -
3/29 3:50am 41 12 G 21 57° 15% - - 10° 57.9° 51° - - -
3/29 3:40am 32 14 G 25 57° 15% - - 10° 57.9° 51° - - -
3/29 3:30am 359 9 G 21 57° 15% - - 10° 57.9° 51° - - -
3/29 3:20am 10 10 G 20 57° 15% - - 10° 57.9° 51° - - -
3/29 3:10am 32 17 G 25 57° 15% - - 10° 57.9° 51° - - -
3/29 3:00am 37 18 G 28 57° 15% - - 10° 57.9° 51° - - -
3/29 2:50am 43 17 G 26 56° 16% - - 10° 57.9° 51° - - -
3/29 2:40am 48 16 G 29 56° 16% - - 10° 57.9° 51° - - -
3/29 2:30am 34 14 G 23 57° 15% - - 10° 57.9° 51° - - -
3/29 2:20am 21 12 G 25 57° 15% - - 10° 57.9° 51° - - -
3/29 2:10am 8 13 G 24 58° 15% - - 10° 57.9° 51° - - -
3/29 2:00am 19 16 G 25 56° 16% - - 11° 57.5° 51° - - -
3/29 1:50am 35 18 G 28 55° 18% - - 13° 56.1° 51° - - -
3/29 1:40am 45 14 G 23 53° 21% - - 14° 54.6° 51° - - -
3/29 1:30am 56 11 G 16 52° 22% - - 14° 53.1° 51° - - -
3/29 1:20am 57 8 G 12 52° 21% - - 13° 53.1° 51° - - -
3/29 1:10am 57 9 G 11 53° 20% - - 13° 53.1° 51° - - -
3/29 1:00am 55 10 G 12 53° 20% - - 13° 53.1° 51° - - -
3/29 12:50am 52 10 G 12 52° 21% - - 13° 53.1° 51° - - -
3/29 12:40am 50 10 G 11 51° 21% - - 12° 53.1° 51° - - -
3/29 12:30am 42 9 G 12 52° 20% - - 12° 53.1° 51.1° - - -
3/29 12:20am 43 9 G 10 52° 20% - - 12° 53.1° 51.4° - - -
3/29 12:10am 47 10 G 11 53° 19% - - 11° 53.1° 52.1° - - -
3/29 12:00am 51 9 G 11 53° 19% - - 11° 66.2° 42.3° - - -
3/28 11:50pm 51 9 G 11 53° 19% - - 12° 66.2° 42.3° - - -
3/28 11:40pm 49 9 G 10 53° 19% - - 12° 66.2° 42.3° - - -
3/28 11:30pm 52 9 G 10 54° 18% - - 11° 66.2° 42.3° - - -
3/28 11:20pm 51 9 G 10 53° 19% - - 12° 66.2° 42.3° - - -
3/28 11:10pm 54 9 G 11 53° 19% - - 12° 66.2° 42.3° - - -
3/28 11:00pm 54 9 G 10 53° 19% - - 12° 66.2° 42.3° - - -
3/28 10:50pm 52 10 G 11 53° 19% - - 12° 66.2° 42.3° - - -
3/28 10:40pm 47 10 G 11 54° 18% - - 11° 66.2° 42.3° - - -
3/28 10:30pm 43 8 G 11 55° 17% - - 11° 66.2° 42.3° - - -
3/28 10:20pm 31 7 G 9 56° 16% - - 10° 66.2° 42.3° - - -
3/28 10:10pm 360 4 G 6 57° 16% - - 10° 66.2° 42.3° - - -
3/28 10:00pm 19 4 G 4 57° 15% - - 10° 66.2° 42.3° - - -
3/28 9:50pm 32 4 G 4 56° 17% - - 12° 66.2° 42.3° - - -
3/28 9:40pm 22 5 G 5 56° 19% - - 14° 66.2° 42.3° - - -
3/28 9:30pm 19 4 G 4 56° 21% - - 17° 66.2° 42.3° - - -
3/28 9:20pm 358 3 G 4 56° 23% - - 19° 66.2° 42.3° - - -
3/28 9:10pm 6 2 G 3 57° 23% - - 19° 66.2° 42.3° - - -
3/28 9:00pm 26 4 G 5 56° 26% - - 21° 66.2° 42.3° - - -
3/28 8:50pm 22 6 G 7 55° 34% - - 27° 66.2° 42.3° - - -
3/28 8:40pm 25 6 G 6 55° 35% - - 28° 66.2° 42.3° - - -
3/28 8:30pm 22 5 G 6 54° 57% - - 40° 66.2° 42.3° - - -
3/28 8:20pm 0 4 G 5 54° 58% - - 40° 66.2° 42.3° - - -
3/28 8:10pm 306 2 G 3 54° 57% - - 39° 66.2° 42.3° - - -
3/28 8:00pm 290 4 G 5 54° 63% - - 41° 66.2° 42.3° - - -
3/28 7:50pm 274 5 G 6 53° 64% - - 41° 66.2° 42.3° - - -
3/28 7:40pm 291 5 G 7 53° 64% - - 41° 66.2° 42.3° - - -
3/28 7:30pm 273 6 G 8 53° 63% - - 41° 66.2° 42.3° - - -
3/28 7:20pm 278 8 G 11 54° 62% - - 41° 66.2° 42.3° - - -
3/28 7:10pm 276 6 G 10 54° 61% - - 41° 66.2° 42.3° - - -
3/28 7:00pm 287 7 G 10 55° 59% - - 41° 66.2° 42.3° - - -
3/28 6:50pm 283 9 G 12 56° 58% - - 41° 66.2° 42.3° - - -
3/28 6:40pm 280 10 G 13 57° 56% - - 41° 66.2° 42.3° - - -
3/28 6:30pm 280 11 G 17 58° 53% - - 41° 66.2° 42.3° - - -
3/28 6:20pm 274 8 G 12 59° 50% - - 41° 66.2° 42.3° - - -
3/28 6:10pm 266 8 G 12 60° 47% - - 40° 66.2° 42.3° - - -
3/28 6:00pm 262 8 G 14 61° 46% - - 40° 66.2° 42.3° - - -
3/28 5:50pm 268 7 G 13 62° 42% - - 39° 66.2° 42.3° - - -
3/28 5:40pm 258 4 G 10 63° 34% - - 35° 66.2° 42.3° - - -
3/28 5:30pm 221 4 G 9 64° 31% - - 32° 66.2° 42.3° - - -
3/28 5:20pm 204 4 G 8 65° 28% - - 30° 66.2° 42.3° - - -
3/28 5:10pm 177 2 G 5 65° 24% - - 27° 66.2° 42.3° - - -
3/28 5:00pm 207 4 G 10 64° 23% - - 26° 66.2° 42.3° - - -
3/28 4:50pm 197 5 G 14 64° 21% - - 23° 66.2° 42.3° - - -
3/28 4:40pm 164 8 G 16 65° 22% - - 24° 66.2° 42.3° - - -
3/28 4:30pm 186 5 G 9 65° 18% - - 21° 66.2° 42.3° - - -
3/28 4:20pm 135 4 G 9 65° 16% - - 18° 66.2° 42.3° - - -
3/28 4:10pm 96 6 G 10 65° 15% - - 15° 66.2° 42.3° - - -
3/28 4:00pm 125 4 G 13 66° 15% - - 16° 66.2° 42.3° - - -
3/28 3:50pm 103 4 G 9 64° 15% - - 16° 66° 42.3° - - -
3/28 3:40pm 95 7 G 14 64° 15% - - 16° 66° 42.3° - - -
3/28 3:30pm 105 7 G 13 64° 15% - - 15° 66° 42.3° - - -
3/28 3:20pm 88 10 G 14 64° 15% - - 15° 66° 42.3° - - -
3/28 3:10pm 132 7 G 13 65° 15% - - 17° 65.9° 42.3° - - -
3/28 3:00pm 178 10 G 16 65° 15% - - 16° 65.9° 42.3° - - -
3/28 2:50pm 158 10 G 21 65° 15% - - 17° 65.7° 42.3° - - -
3/28 2:40pm 135 6 G 16 64° 17% - - 19° 65.4° 42.3° - - -
3/28 2:30pm 182 8 G 15 64° 19% - - 21° 65.3° 42.3° - - -
3/28 2:20pm 184 7 G 16 64° 20% - - 22° 65.3° 42.3° - - -
3/28 2:10pm 286 3 G 9 64° 21% - - 23° 65.3° 42.3° - - -
3/28 2:00pm 221 4 G 12 63° 22% - - 24° 65.3° 42.3° - - -
3/28 1:50pm 224 7 G 14 64° 22% - - 25° 65.3° 42.3° - - -
3/28 1:40pm 175 4 G 10 64° 20% - - 23° 65.3° 42.3° - - -
3/28 1:30pm 126 5 G 10 64° 19% - - 21° 64.6° 42.3° - - -
3/28 1:20pm 187 4 G 10 63° 20% - - 21° 64.6° 42.3° - - -
3/28 1:10pm 204 6 G 13 63° 21% - - 22° 64.2° 42.3° - - -
3/28 1:00pm 241 6 G 13 62° 22% - - 23° 64.2° 42.3° - - -
3/28 12:50pm 247 9 G 15 62° 22% - - 23° 64.2° 42.3° - - -
3/28 12:40pm 168 10 G 16 63° 18% - - 19° 64.2° 42.3° - - -
3/28 12:30pm 110 7 G 14 63° 17% - - 17° 64° 42.3° - - -
3/28 12:20pm 106 7 G 14 62° 15% - - 14° 63° 42.3° - - -
3/28 12:10pm 64 4 G 9 62° 16% - - 15° 62.7° 42.3° - - -
3/28 12:00pm 297 6 G 12 62° 18% - - 18° 62.7° 42.3° - - -
3/28 11:50am 259 5 G 11 61° 19% - - 18° 62.7° 42.3° - - -
3/28 11:40am 292 7 G 14 62° 16% - - 14° 62.7° 42.3° - - -
3/28 11:30am 1 9 G 14 62° 13% - - 11° 62.7° 42.3° - - -
3/28 11:20am 322 8 G 19 62° 15% - - 13° 62.4° 42.3° - - -
3/28 11:10am 8 8 G 15 62° 14% - - 12° 62.4° 42.3° - - -
3/28 11:00am 20 10 G 17 60° 14% - - 12° 61° 42.3° - - -
3/28 10:50am 19 10 G 18 60° 15% - - 12° 60.5° 42.3° - - -
3/28 10:40am 34 10 G 17 59° 17% - - 14° 60° 42.3° - - -
3/28 10:30am 50 11 G 15 58° 19% - - 16° 58.5° 42.3° - - -
3/28 10:20am 50 11 G 18 57° 20% - - 17° 58° 42.3° - - -
3/28 10:10am 48 12 G 18 56° 21% - - 17° 56.8° 42.3° - - -
3/28 10:00am 51 12 G 19 56° 21% - - 17° 56.7° 42.3° - - -
3/28 9:50am 54 12 G 19 56° 21% - - 16° 56.7° 42.3° - - -
3/28 9:40am 53 13 G 20 55° 22% - - 17° 56.1° 42.3° - - -
3/28 9:30am 49 11 G 19 56° 22% - - 17° 56.1° 42.3° - - -
3/28 9:20am 57 13 G 19 54° 23% - - 18° 55° 42.3° - - -
3/28 9:10am 51 12 G 18 54° 24% - - 18° 54.1° 42.3° - - -
3/28 9:00am 59 12 G 17 53° 25% - - 18° 53.7° 42.3° - - -
3/28 8:50am 60 12 G 18 52° 25% - - 18° 53° 42.3° - - -
3/28 8:40am 52 9 G 14 52° 26% - - 18° 52.3° 42.3° - - -
3/28 8:30am 50 9 G 16 51° 26% - - 18° 51.7° 42.3° - - -
3/28 8:20am 55 9 G 14 51° 27% - - 18° 51.7° 42.3° - - -
3/28 8:10am 60 10 G 15 50° 28% - - 18° 51.2° 42.3° - - -
3/28 8:00am 44 10 G 16 51° 26% - - 17° 51.2° 42.3° - - -
3/28 7:50am 37 11 G 18 50° 26% - - 17° 51.2° 42.3° - - -
3/28 7:40am 42 10 G 16 50° 26% - - 17° 51.2° 42.3° - - -
3/28 7:30am 40 14 G 20 50° 24% - - 15° 51.2° 42.3° - - -
3/28 7:20am 52 12 G 15 48° 27% - - 15° 51.2° 42.3° - - -
3/28 7:10am 52 9 G 12 47° 28% - - 16° 51.2° 42.3° - - -
3/28 7:00am 41 11 G 15 47° 29% - - 16° 51.2° 42.3° - - -
3/28 6:50am 44 10 G 13 46° 31% - - 17° 51.2° 42.3° - - -
3/28 6:40am 58 9 G 12 47° 31% - - 18° 51.2° 42.3° - - -
3/28 6:30am 29 8 G 11 48° 29% - - 17° 51.2° 42.3° - - -
3/28 6:20am 47 9 G 11 48° 30% - - 18° 51.2° 42.3° - - -
3/28 6:10am 30 11 G 14 47° 31% - - 18° 51.2° 42.3° - - -
3/28 6:00am 27 7 G 10 48° 31% - - 18° 51.2° 42.3° - - -